sensor_id;sensor_type;location;lat;lon;timestamp;temperature;humidity
78876;DHT22;68253;52.506;5.486;2023-09-07T00:01:57;21.20;68.20
78876;DHT22;68253;52.506;5.486;2023-09-07T00:04:23;21.20;68.20
78876;DHT22;68253;52.506;5.486;2023-09-07T00:06:49;21.20;68.10
78876;DHT22;68253;52.506;5.486;2023-09-07T00:09:16;21.20;68.10
78876;DHT22;68253;52.506;5.486;2023-09-07T00:11:44;21.20;68.00
78876;DHT22;68253;52.506;5.486;2023-09-07T00:14:11;21.20;68.00
78876;DHT22;68253;52.506;5.486;2023-09-07T00:16:37;21.20;68.00
78876;DHT22;68253;52.506;5.486;2023-09-07T00:19:06;21.30;67.80
78876;DHT22;68253;52.506;5.486;2023-09-07T00:21:33;21.30;67.70
78876;DHT22;68253;52.506;5.486;2023-09-07T00:23:59;21.30;67.60
78876;DHT22;68253;52.506;5.486;2023-09-07T00:26:30;21.30;67.40
78876;DHT22;68253;52.506;5.486;2023-09-07T00:28:56;21.30;67.20
78876;DHT22;68253;52.506;5.486;2023-09-07T00:31:22;21.40;67.20
78876;DHT22;68253;52.506;5.486;2023-09-07T00:33:49;21.40;67.10
78876;DHT22;68253;52.506;5.486;2023-09-07T00:36:15;21.40;67.00
78876;DHT22;68253;52.506;5.486;2023-09-07T00:38:41;21.40;66.90
78876;DHT22;68253;52.506;5.486;2023-09-07T00:41:07;21.40;66.90
78876;DHT22;68253;52.506;5.486;2023-09-07T00:43:33;21.40;66.80
78876;DHT22;68253;52.506;5.486;2023-09-07T00:45:59;21.40;66.80
78876;DHT22;68253;52.506;5.486;2023-09-07T00:48:26;21.40;66.70
78876;DHT22;68253;52.506;5.486;2023-09-07T00:50:52;21.40;66.70
78876;DHT22;68253;52.506;5.486;2023-09-07T00:53:19;21.40;66.70
78876;DHT22;68253;52.506;5.486;2023-09-07T00:55:45;21.40;66.70
78876;DHT22;68253;52.506;5.486;2023-09-07T00:58:12;21.40;66.60
78876;DHT22;68253;52.506;5.486;2023-09-07T01:00:39;21.40;66.60
78876;DHT22;68253;52.506;5.486;2023-09-07T01:03:05;21.40;66.60
78876;DHT22;68253;52.506;5.486;2023-09-07T01:08:17;21.30;66.70
78876;DHT22;68253;52.506;5.486;2023-09-07T01:10:45;21.30;66.70
78876;DHT22;68253;52.506;5.486;2023-09-07T01:13:11;21.20;66.70
78876;DHT22;68253;52.506;5.486;2023-09-07T01:15:37;21.10;66.80
78876;DHT22;68253;52.506;5.486;2023-09-07T01:18:04;21.10;66.80
78876;DHT22;68253;52.506;5.486;2023-09-07T01:20:32;21.10;66.80
78876;DHT22;68253;52.506;5.486;2023-09-07T01:22:59;21.10;66.90
78876;DHT22;68253;52.506;5.486;2023-09-07T01:25:26;21.10;66.90
78876;DHT22;68253;52.506;5.486;2023-09-07T01:27:54;21.10;67.00
78876;DHT22;68253;52.506;5.486;2023-09-07T01:30:21;21.00;67.00
78876;DHT22;68253;52.506;5.486;2023-09-07T01:32:47;21.00;67.00
78876;DHT22;68253;52.506;5.486;2023-09-07T01:35:16;21.00;67.10
78876;DHT22;68253;52.506;5.486;2023-09-07T01:37:44;21.00;67.10
78876;DHT22;68253;52.506;5.486;2023-09-07T01:40:10;20.90;67.10
78876;DHT22;68253;52.506;5.486;2023-09-07T01:42:36;20.90;67.10
78876;DHT22;68253;52.506;5.486;2023-09-07T01:45:03;20.90;67.20
78876;DHT22;68253;52.506;5.486;2023-09-07T01:47:30;20.90;67.20
78876;DHT22;68253;52.506;5.486;2023-09-07T01:49:56;20.80;67.30
78876;DHT22;68253;52.506;5.486;2023-09-07T01:52:22;20.80;67.30
78876;DHT22;68253;52.506;5.486;2023-09-07T01:54:48;20.80;67.50
78876;DHT22;68253;52.506;5.486;2023-09-07T01:57:14;20.70;67.50
78876;DHT22;68253;52.506;5.486;2023-09-07T01:59:40;20.70;67.50
78876;DHT22;68253;52.506;5.486;2023-09-07T02:02:07;20.60;67.60
78876;DHT22;68253;52.506;5.486;2023-09-07T02:04:33;20.60;67.70
78876;DHT22;68253;52.506;5.486;2023-09-07T02:06:59;20.60;67.70
78876;DHT22;68253;52.506;5.486;2023-09-07T02:09:26;20.60;67.80
78876;DHT22;68253;52.506;5.486;2023-09-07T02:11:52;20.60;67.80
78876;DHT22;68253;52.506;5.486;2023-09-07T02:14:18;20.50;68.00
78876;DHT22;68253;52.506;5.486;2023-09-07T02:16:44;20.50;68.00
78876;DHT22;68253;52.506;5.486;2023-09-07T02:19:10;20.50;68.10
78876;DHT22;68253;52.506;5.486;2023-09-07T02:21:36;20.40;68.20
78876;DHT22;68253;52.506;5.486;2023-09-07T02:24:02;20.30;68.30
78876;DHT22;68253;52.506;5.486;2023-09-07T02:26:29;20.30;68.30
78876;DHT22;68253;52.506;5.486;2023-09-07T02:28:55;20.30;68.40
78876;DHT22;68253;52.506;5.486;2023-09-07T02:31:21;20.30;68.40
78876;DHT22;68253;52.506;5.486;2023-09-07T02:33:47;20.30;68.50
78876;DHT22;68253;52.506;5.486;2023-09-07T02:36:14;20.20;68.60
78876;DHT22;68253;52.506;5.486;2023-09-07T02:38:40;20.10;68.70
78876;DHT22;68253;52.506;5.486;2023-09-07T02:41:06;20.10;68.80
78876;DHT22;68253;52.506;5.486;2023-09-07T02:43:32;20.10;68.80
78876;DHT22;68253;52.506;5.486;2023-09-07T02:45:59;20.00;69.00
78876;DHT22;68253;52.506;5.486;2023-09-07T02:48:25;20.00;69.00
78876;DHT22;68253;52.506;5.486;2023-09-07T02:50:51;20.00;69.10
78876;DHT22;68253;52.506;5.486;2023-09-07T02:53:20;20.00;69.10
78876;DHT22;68253;52.506;5.486;2023-09-07T02:55:47;19.90;69.10
78876;DHT22;68253;52.506;5.486;2023-09-07T02:58:13;19.90;69.20
78876;DHT22;68253;52.506;5.486;2023-09-07T03:00:45;19.90;69.30
78876;DHT22;68253;52.506;5.486;2023-09-07T03:03:15;19.80;69.30
78876;DHT22;68253;52.506;5.486;2023-09-07T03:05:43;19.80;69.30
78876;DHT22;68253;52.506;5.486;2023-09-07T03:08:10;19.70;69.40
78876;DHT22;68253;52.506;5.486;2023-09-07T03:10:36;19.70;69.40
78876;DHT22;68253;52.506;5.486;2023-09-07T03:13:07;19.70;69.40
78876;DHT22;68253;52.506;5.486;2023-09-07T03:15:34;19.70;69.40
78876;DHT22;68253;52.506;5.486;2023-09-07T03:18:01;19.70;69.50
78876;DHT22;68253;52.506;5.486;2023-09-07T03:20:27;19.70;69.50
78876;DHT22;68253;52.506;5.486;2023-09-07T03:22:53;19.70;69.50
78876;DHT22;68253;52.506;5.486;2023-09-07T03:25:20;19.70;69.60
78876;DHT22;68253;52.506;5.486;2023-09-07T03:27:46;19.70;69.60
78876;DHT22;68253;52.506;5.486;2023-09-07T03:30:13;19.60;69.60
78876;DHT22;68253;52.506;5.486;2023-09-07T03:32:39;19.50;69.60
78876;DHT22;68253;52.506;5.486;2023-09-07T03:35:06;19.50;69.60
78876;DHT22;68253;52.506;5.486;2023-09-07T03:37:36;19.50;69.70
78876;DHT22;68253;52.506;5.486;2023-09-07T03:40:06;19.50;69.70
78876;DHT22;68253;52.506;5.486;2023-09-07T03:42:35;19.50;69.80
78876;DHT22;68253;52.506;5.486;2023-09-07T03:45:02;19.50;69.90
78876;DHT22;68253;52.506;5.486;2023-09-07T03:47:29;19.50;69.90
78876;DHT22;68253;52.506;5.486;2023-09-07T03:49:57;19.40;69.90
78876;DHT22;68253;52.506;5.486;2023-09-07T03:52:23;19.40;70.00
78876;DHT22;68253;52.506;5.486;2023-09-07T03:54:51;19.40;70.00
78876;DHT22;68253;52.506;5.486;2023-09-07T03:57:19;19.40;70.00
78876;DHT22;68253;52.506;5.486;2023-09-07T03:59:47;19.40;70.00
78876;DHT22;68253;52.506;5.486;2023-09-07T04:02:14;19.40;70.00
78876;DHT22;68253;52.506;5.486;2023-09-07T04:04:40;19.40;70.00
78876;DHT22;68253;52.506;5.486;2023-09-07T04:07:06;19.30;70.10
78876;DHT22;68253;52.506;5.486;2023-09-07T04:09:33;19.30;70.10
78876;DHT22;68253;52.506;5.486;2023-09-07T04:11:59;19.30;70.10
78876;DHT22;68253;52.506;5.486;2023-09-07T04:14:25;19.30;70.10
78876;DHT22;68253;52.506;5.486;2023-09-07T04:16:51;19.30;70.00
78876;DHT22;68253;52.506;5.486;2023-09-07T04:19:17;19.30;70.00
78876;DHT22;68253;52.506;5.486;2023-09-07T04:21:43;19.30;70.10
78876;DHT22;68253;52.506;5.486;2023-09-07T04:24:09;19.30;70.20
78876;DHT22;68253;52.506;5.486;2023-09-07T04:26:37;19.20;70.10
78876;DHT22;68253;52.506;5.486;2023-09-07T04:29:03;19.20;70.20
78876;DHT22;68253;52.506;5.486;2023-09-07T04:31:30;19.20;70.20
78876;DHT22;68253;52.506;5.486;2023-09-07T04:33:57;19.20;70.20
78876;DHT22;68253;52.506;5.486;2023-09-07T04:36:23;19.10;70.30
78876;DHT22;68253;52.506;5.486;2023-09-07T04:38:49;19.10;70.30
78876;DHT22;68253;52.506;5.486;2023-09-07T04:41:16;19.10;70.40
78876;DHT22;68253;52.506;5.486;2023-09-07T04:43:43;19.10;70.40
78876;DHT22;68253;52.506;5.486;2023-09-07T04:46:10;19.00;70.40
78876;DHT22;68253;52.506;5.486;2023-09-07T04:48:37;19.00;70.50
78876;DHT22;68253;52.506;5.486;2023-09-07T04:51:05;19.00;70.60
78876;DHT22;68253;52.506;5.486;2023-09-07T04:53:35;18.90;70.70
78876;DHT22;68253;52.506;5.486;2023-09-07T04:56:03;18.90;70.70
78876;DHT22;68253;52.506;5.486;2023-09-07T04:58:29;18.90;70.70
78876;DHT22;68253;52.506;5.486;2023-09-07T05:01:06;18.90;70.80
78876;DHT22;68253;52.506;5.486;2023-09-07T05:03:33;18.90;70.80
78876;DHT22;68253;52.506;5.486;2023-09-07T05:05:59;18.80;70.80
78876;DHT22;68253;52.506;5.486;2023-09-07T05:08:26;18.80;70.80
78876;DHT22;68253;52.506;5.486;2023-09-07T05:10:56;18.80;70.80
78876;DHT22;68253;52.506;5.486;2023-09-07T05:13:24;18.80;70.80
78876;DHT22;68253;52.506;5.486;2023-09-07T05:15:51;18.70;70.80
78876;DHT22;68253;52.506;5.486;2023-09-07T05:18:19;18.70;70.90
78876;DHT22;68253;52.506;5.486;2023-09-07T05:20:45;18.70;70.90
78876;DHT22;68253;52.506;5.486;2023-09-07T05:23:15;18.70;70.90
78876;DHT22;68253;52.506;5.486;2023-09-07T05:25:44;18.70;70.90
78876;DHT22;68253;52.506;5.486;2023-09-07T05:28:13;18.70;70.90
78876;DHT22;68253;52.506;5.486;2023-09-07T05:30:39;18.70;70.90
78876;DHT22;68253;52.506;5.486;2023-09-07T05:33:05;18.70;70.80
78876;DHT22;68253;52.506;5.486;2023-09-07T05:35:32;18.70;70.90
78876;DHT22;68253;52.506;5.486;2023-09-07T05:37:59;18.80;70.90
78876;DHT22;68253;52.506;5.486;2023-09-07T05:40:25;18.80;70.90
78876;DHT22;68253;52.506;5.486;2023-09-07T05:42:51;18.80;70.90
78876;DHT22;68253;52.506;5.486;2023-09-07T05:45:18;18.80;70.90
78876;DHT22;68253;52.506;5.486;2023-09-07T05:47:44;18.80;70.80
78876;DHT22;68253;52.506;5.486;2023-09-07T05:50:11;18.90;70.70
78876;DHT22;68253;52.506;5.486;2023-09-07T05:52:38;18.90;70.70
78876;DHT22;68253;52.506;5.486;2023-09-07T05:55:05;18.90;70.60
78876;DHT22;68253;52.506;5.486;2023-09-07T05:57:32;18.90;70.60
78876;DHT22;68253;52.506;5.486;2023-09-07T05:59:58;19.00;70.50
78876;DHT22;68253;52.506;5.486;2023-09-07T06:02:24;19.00;70.50
78876;DHT22;68253;52.506;5.486;2023-09-07T06:04:50;19.00;70.40
78876;DHT22;68253;52.506;5.486;2023-09-07T06:07:16;19.10;70.40
78876;DHT22;68253;52.506;5.486;2023-09-07T06:09:42;19.10;70.20
78876;DHT22;68253;52.506;5.486;2023-09-07T06:12:09;19.20;70.10
78876;DHT22;68253;52.506;5.486;2023-09-07T06:14:35;19.30;70.00
78876;DHT22;68253;52.506;5.486;2023-09-07T06:17:01;19.40;70.00
78876;DHT22;68253;52.506;5.486;2023-09-07T06:19:27;19.50;69.80
78876;DHT22;68253;52.506;5.486;2023-09-07T06:21:53;19.70;69.60
78876;DHT22;68253;52.506;5.486;2023-09-07T06:24:19;19.80;69.20
78876;DHT22;68253;52.506;5.486;2023-09-07T06:26:46;20.00;69.00
78876;DHT22;68253;52.506;5.486;2023-09-07T06:29:12;20.10;68.90
78876;DHT22;68253;52.506;5.486;2023-09-07T06:31:38;20.30;68.50
78876;DHT22;68253;52.506;5.486;2023-09-07T06:34:04;20.50;68.20
78876;DHT22;68253;52.506;5.486;2023-09-07T06:36:31;20.50;68.00
78876;DHT22;68253;52.506;5.486;2023-09-07T06:38:57;20.70;67.70
78876;DHT22;68253;52.506;5.486;2023-09-07T06:41:24;20.90;67.40
78876;DHT22;68253;52.506;5.486;2023-09-07T06:43:52;21.10;67.20
78876;DHT22;68253;52.506;5.486;2023-09-07T06:46:19;21.50;66.80
78876;DHT22;68253;52.506;5.486;2023-09-07T06:48:45;21.70;66.40
78876;DHT22;68253;52.506;5.486;2023-09-07T06:51:11;21.90;66.00
78876;DHT22;68253;52.506;5.486;2023-09-07T06:53:37;22.20;65.50
78876;DHT22;68253;52.506;5.486;2023-09-07T06:56:03;22.50;65.00
78876;DHT22;68253;52.506;5.486;2023-09-07T06:58:30;22.70;64.70
78876;DHT22;68253;52.506;5.486;2023-09-07T07:00:59;22.90;64.30
78876;DHT22;68253;52.506;5.486;2023-09-07T07:03:28;23.20;63.80
78876;DHT22;68253;52.506;5.486;2023-09-07T07:05:57;23.40;63.30
78876;DHT22;68253;52.506;5.486;2023-09-07T07:08:24;23.60;63.00
78876;DHT22;68253;52.506;5.486;2023-09-07T07:10:50;23.80;62.50
78876;DHT22;68253;52.506;5.486;2023-09-07T07:13:16;24.00;62.20
78876;DHT22;68253;52.506;5.486;2023-09-07T07:15:43;24.20;61.90
78876;DHT22;68253;52.506;5.486;2023-09-07T07:18:09;24.40;61.60
78876;DHT22;68253;52.506;5.486;2023-09-07T07:20:37;24.70;60.90
78876;DHT22;68253;52.506;5.486;2023-09-07T07:23:04;25.00;60.40
78876;DHT22;68253;52.506;5.486;2023-09-07T07:25:33;25.30;60.20
78876;DHT22;68253;52.506;5.486;2023-09-07T07:28:01;25.50;59.70
78876;DHT22;68253;52.506;5.486;2023-09-07T07:30:30;25.70;59.60
78876;DHT22;68253;52.506;5.486;2023-09-07T07:32:57;25.90;58.90
78876;DHT22;68253;52.506;5.486;2023-09-07T07:35:23;26.10;58.90
78876;DHT22;68253;52.506;5.486;2023-09-07T07:37:50;26.40;58.60
78876;DHT22;68253;52.506;5.486;2023-09-07T07:40:17;26.60;57.70
78876;DHT22;68253;52.506;5.486;2023-09-07T07:42:45;26.90;57.70
78876;DHT22;68253;52.506;5.486;2023-09-07T07:45:13;27.20;57.50
78876;DHT22;68253;52.506;5.486;2023-09-07T07:47:40;27.40;56.70
78876;DHT22;68253;52.506;5.486;2023-09-07T07:50:07;27.60;56.70
78876;DHT22;68253;52.506;5.486;2023-09-07T07:52:34;27.80;56.20
78876;DHT22;68253;52.506;5.486;2023-09-07T07:55:01;27.90;56.00
78876;DHT22;68253;52.506;5.486;2023-09-07T07:57:27;28.00;55.50
78876;DHT22;68253;52.506;5.486;2023-09-07T07:59:55;28.10;55.30
78876;DHT22;68253;52.506;5.486;2023-09-07T08:02:21;28.20;55.40
78876;DHT22;68253;52.506;5.486;2023-09-07T08:04:47;28.30;55.00
78876;DHT22;68253;52.506;5.486;2023-09-07T08:07:14;28.30;55.00
78876;DHT22;68253;52.506;5.486;2023-09-07T08:09:40;28.20;55.00
78876;DHT22;68253;52.506;5.486;2023-09-07T08:12:07;28.20;55.50
78876;DHT22;68253;52.506;5.486;2023-09-07T08:14:35;28.30;55.70
78876;DHT22;68253;52.506;5.486;2023-09-07T08:17:03;28.40;54.80
78876;DHT22;68253;52.506;5.486;2023-09-07T08:19:29;28.50;54.20
78876;DHT22;68253;52.506;5.486;2023-09-07T08:21:57;28.60;54.50
78876;DHT22;68253;52.506;5.486;2023-09-07T08:24:24;28.80;54.80
78876;DHT22;68253;52.506;5.486;2023-09-07T08:26:51;28.90;54.50
78876;DHT22;68253;52.506;5.486;2023-09-07T08:29:20;29.00;53.90
78876;DHT22;68253;52.506;5.486;2023-09-07T08:31:53;29.00;54.10
78876;DHT22;68253;52.506;5.486;2023-09-07T08:34:20;29.10;53.80
78876;DHT22;68253;52.506;5.486;2023-09-07T08:36:48;29.00;53.80
78876;DHT22;68253;52.506;5.486;2023-09-07T08:39:16;29.10;54.40
78876;DHT22;68253;52.506;5.486;2023-09-07T08:41:43;29.20;54.10
78876;DHT22;68253;52.506;5.486;2023-09-07T08:44:11;29.30;53.90
78876;DHT22;68253;52.506;5.486;2023-09-07T08:46:37;29.40;53.90
78876;DHT22;68253;52.506;5.486;2023-09-07T08:49:04;29.50;53.40
78876;DHT22;68253;52.506;5.486;2023-09-07T08:51:31;29.60;53.90
78876;DHT22;68253;52.506;5.486;2023-09-07T08:54:02;29.70;53.60
78876;DHT22;68253;52.506;5.486;2023-09-07T08:56:29;29.80;53.70
78876;DHT22;68253;52.506;5.486;2023-09-07T08:58:55;29.90;53.70
78876;DHT22;68253;52.506;5.486;2023-09-07T09:01:22;30.00;53.50
78876;DHT22;68253;52.506;5.486;2023-09-07T09:03:49;30.10;53.00
78876;DHT22;68253;52.506;5.486;2023-09-07T09:06:20;30.30;53.20
78876;DHT22;68253;52.506;5.486;2023-09-07T09:08:55;30.30;53.70
78876;DHT22;68253;52.506;5.486;2023-09-07T09:11:23;30.50;53.10
78876;DHT22;68253;52.506;5.486;2023-09-07T09:13:50;30.50;53.00
78876;DHT22;68253;52.506;5.486;2023-09-07T09:16:17;30.50;52.30
78876;DHT22;68253;52.506;5.486;2023-09-07T09:18:54;30.60;52.10
78876;DHT22;68253;52.506;5.486;2023-09-07T09:21:22;30.70;52.20
78876;DHT22;68253;52.506;5.486;2023-09-07T09:23:51;30.80;51.90
78876;DHT22;68253;52.506;5.486;2023-09-07T09:26:17;31.00;52.00
78876;DHT22;68253;52.506;5.486;2023-09-07T09:28:44;31.10;52.20
78876;DHT22;68253;52.506;5.486;2023-09-07T09:31:14;31.10;51.80
78876;DHT22;68253;52.506;5.486;2023-09-07T09:33:41;31.10;51.90
78876;DHT22;68253;52.506;5.486;2023-09-07T09:36:08;31.20;52.10
78876;DHT22;68253;52.506;5.486;2023-09-07T09:38:35;31.20;52.00
78876;DHT22;68253;52.506;5.486;2023-09-07T09:41:03;31.30;51.90
78876;DHT22;68253;52.506;5.486;2023-09-07T09:43:29;31.30;51.60
78876;DHT22;68253;52.506;5.486;2023-09-07T09:45:56;31.40;52.20
78876;DHT22;68253;52.506;5.486;2023-09-07T09:48:23;31.60;51.40
78876;DHT22;68253;52.506;5.486;2023-09-07T09:50:50;31.60;51.50
78876;DHT22;68253;52.506;5.486;2023-09-07T09:53:17;31.70;51.20
78876;DHT22;68253;52.506;5.486;2023-09-07T09:55:50;31.80;51.50
78876;DHT22;68253;52.506;5.486;2023-09-07T09:58:18;32.00;50.70
78876;DHT22;68253;52.506;5.486;2023-09-07T10:00:56;32.00;51.20
78876;DHT22;68253;52.506;5.486;2023-09-07T10:03:36;32.00;50.60
78876;DHT22;68253;52.506;5.486;2023-09-07T10:06:30;32.00;51.20
78876;DHT22;68253;52.506;5.486;2023-09-07T10:09:01;32.20;51.00
78876;DHT22;68253;52.506;5.486;2023-09-07T10:11:34;32.20;50.90
78876;DHT22;68253;52.506;5.486;2023-09-07T10:14:01;32.30;50.30
78876;DHT22;68253;52.506;5.486;2023-09-07T10:16:45;32.40;50.80
78876;DHT22;68253;52.506;5.486;2023-09-07T10:21:44;32.60;50.80
78876;DHT22;68253;52.506;5.486;2023-09-07T10:24:11;32.80;50.20
78876;DHT22;68253;52.506;5.486;2023-09-07T10:26:37;32.90;50.00
78876;DHT22;68253;52.506;5.486;2023-09-07T10:29:04;33.00;50.30
78876;DHT22;68253;52.506;5.486;2023-09-07T10:31:31;33.10;50.80
78876;DHT22;68253;52.506;5.486;2023-09-07T10:34:08;33.20;50.10
78876;DHT22;68253;52.506;5.486;2023-09-07T10:36:36;33.30;49.60
78876;DHT22;68253;52.506;5.486;2023-09-07T10:39:03;33.30;49.10
78876;DHT22;68253;52.506;5.486;2023-09-07T10:41:42;33.30;48.60
78876;DHT22;68253;52.506;5.486;2023-09-07T10:44:09;33.50;49.00
78876;DHT22;68253;52.506;5.486;2023-09-07T10:46:39;33.60;48.80
78876;DHT22;68253;52.506;5.486;2023-09-07T10:49:11;33.60;48.10
78876;DHT22;68253;52.506;5.486;2023-09-07T10:51:45;33.60;47.90
78876;DHT22;68253;52.506;5.486;2023-09-07T10:54:22;33.70;48.10
78876;DHT22;68253;52.506;5.486;2023-09-07T10:56:49;33.80;48.50
78876;DHT22;68253;52.506;5.486;2023-09-07T10:59:16;34.00;47.10
78876;DHT22;68253;52.506;5.486;2023-09-07T11:01:46;34.00;47.70
78876;DHT22;68253;52.506;5.486;2023-09-07T11:04:14;34.20;47.10
78876;DHT22;68253;52.506;5.486;2023-09-07T11:06:43;34.20;47.20
78876;DHT22;68253;52.506;5.486;2023-09-07T11:09:09;34.20;47.20
78876;DHT22;68253;52.506;5.486;2023-09-07T11:11:38;34.10;47.30
78876;DHT22;68253;52.506;5.486;2023-09-07T11:14:05;34.10;47.20
78876;DHT22;68253;52.506;5.486;2023-09-07T11:16:33;34.00;47.40
78876;DHT22;68253;52.506;5.486;2023-09-07T11:19:07;34.20;48.20
78876;DHT22;68253;52.506;5.486;2023-09-07T11:21:35;34.30;47.60
78876;DHT22;68253;52.506;5.486;2023-09-07T11:24:02;34.40;47.70
78876;DHT22;68253;52.506;5.486;2023-09-07T11:26:44;34.50;46.80
78876;DHT22;68253;52.506;5.486;2023-09-07T11:29:17;34.50;46.60
78876;DHT22;68253;52.506;5.486;2023-09-07T11:31:44;34.60;47.30
78876;DHT22;68253;52.506;5.486;2023-09-07T11:34:14;34.60;46.70
78876;DHT22;68253;52.506;5.486;2023-09-07T11:36:41;34.60;46.60
78876;DHT22;68253;52.506;5.486;2023-09-07T11:39:08;34.50;46.60
78876;DHT22;68253;52.506;5.486;2023-09-07T11:41:44;34.60;46.60
78876;DHT22;68253;52.506;5.486;2023-09-07T11:44:11;34.60;46.80
78876;DHT22;68253;52.506;5.486;2023-09-07T11:46:38;34.60;46.50
78876;DHT22;68253;52.506;5.486;2023-09-07T11:49:04;34.70;46.20
78876;DHT22;68253;52.506;5.486;2023-09-07T11:51:34;34.90;45.90
78876;DHT22;68253;52.506;5.486;2023-09-07T11:54:04;34.90;45.10
78876;DHT22;68253;52.506;5.486;2023-09-07T11:56:30;34.80;45.10
78876;DHT22;68253;52.506;5.486;2023-09-07T11:58:57;34.80;44.70
78876;DHT22;68253;52.506;5.486;2023-09-07T12:01:23;34.90;45.20
78876;DHT22;68253;52.506;5.486;2023-09-07T12:03:49;35.00;45.30
78876;DHT22;68253;52.506;5.486;2023-09-07T12:06:15;35.10;45.80
78876;DHT22;68253;52.506;5.486;2023-09-07T12:08:42;35.20;46.00
78876;DHT22;68253;52.506;5.486;2023-09-07T12:11:23;35.30;45.50
78876;DHT22;68253;52.506;5.486;2023-09-07T12:13:49;35.20;46.10
78876;DHT22;68253;52.506;5.486;2023-09-07T12:16:15;35.20;46.10
78876;DHT22;68253;52.506;5.486;2023-09-07T12:18:41;35.10;45.90
78876;DHT22;68253;52.506;5.486;2023-09-07T12:21:07;35.00;46.40
78876;DHT22;68253;52.506;5.486;2023-09-07T12:23:34;35.00;46.00
78876;DHT22;68253;52.506;5.486;2023-09-07T12:26:01;35.10;46.20
78876;DHT22;68253;52.506;5.486;2023-09-07T12:28:27;35.10;45.50
78876;DHT22;68253;52.506;5.486;2023-09-07T12:30:53;35.20;45.40
78876;DHT22;68253;52.506;5.486;2023-09-07T12:33:19;35.20;45.60
78876;DHT22;68253;52.506;5.486;2023-09-07T12:35:45;35.20;45.00
78876;DHT22;68253;52.506;5.486;2023-09-07T12:38:11;35.20;45.40
78876;DHT22;68253;52.506;5.486;2023-09-07T12:40:43;35.10;44.70
78876;DHT22;68253;52.506;5.486;2023-09-07T12:43:10;35.10;45.20
78876;DHT22;68253;52.506;5.486;2023-09-07T12:45:36;35.10;45.50
78876;DHT22;68253;52.506;5.486;2023-09-07T12:48:02;35.10;45.00
78876;DHT22;68253;52.506;5.486;2023-09-07T12:50:29;35.10;45.10
78876;DHT22;68253;52.506;5.486;2023-09-07T12:52:55;35.00;44.80
78876;DHT22;68253;52.506;5.486;2023-09-07T12:55:21;35.00;45.50
78876;DHT22;68253;52.506;5.486;2023-09-07T12:57:47;35.10;45.30
78876;DHT22;68253;52.506;5.486;2023-09-07T13:00:14;35.20;45.20
78876;DHT22;68253;52.506;5.486;2023-09-07T13:02:40;35.20;44.60
78876;DHT22;68253;52.506;5.486;2023-09-07T13:05:06;35.10;44.80
78876;DHT22;68253;52.506;5.486;2023-09-07T13:07:33;35.20;45.60
78876;DHT22;68253;52.506;5.486;2023-09-07T13:10:00;35.30;45.20
78876;DHT22;68253;52.506;5.486;2023-09-07T13:12:33;35.30;46.10
78876;DHT22;68253;52.506;5.486;2023-09-07T13:14:59;35.20;45.50
78876;DHT22;68253;52.506;5.486;2023-09-07T13:17:25;35.10;46.10
78876;DHT22;68253;52.506;5.486;2023-09-07T13:19:51;35.00;46.50
78876;DHT22;68253;52.506;5.486;2023-09-07T13:22:17;35.00;46.90
78876;DHT22;68253;52.506;5.486;2023-09-07T13:24:43;34.80;46.90
78876;DHT22;68253;52.506;5.486;2023-09-07T13:27:09;34.70;47.10
78876;DHT22;68253;52.506;5.486;2023-09-07T13:29:36;34.70;47.20
78876;DHT22;68253;52.506;5.486;2023-09-07T13:32:03;34.70;47.10
78876;DHT22;68253;52.506;5.486;2023-09-07T13:34:29;34.80;47.00
78876;DHT22;68253;52.506;5.486;2023-09-07T13:36:56;34.80;47.30
78876;DHT22;68253;52.506;5.486;2023-09-07T13:39:22;34.90;47.20
78876;DHT22;68253;52.506;5.486;2023-09-07T13:41:49;34.90;47.90
78876;DHT22;68253;52.506;5.486;2023-09-07T13:44:15;34.90;47.10
78876;DHT22;68253;52.506;5.486;2023-09-07T13:46:43;34.80;46.90
78876;DHT22;68253;52.506;5.486;2023-09-07T13:49:10;34.70;47.30
78876;DHT22;68253;52.506;5.486;2023-09-07T13:51:36;34.60;47.60
78876;DHT22;68253;52.506;5.486;2023-09-07T13:54:06;34.60;47.50
78876;DHT22;68253;52.506;5.486;2023-09-07T13:56:33;34.60;47.50
78876;DHT22;68253;52.506;5.486;2023-09-07T13:59:00;34.60;47.20
78876;DHT22;68253;52.506;5.486;2023-09-07T14:01:26;34.60;47.00
78876;DHT22;68253;52.506;5.486;2023-09-07T14:03:53;34.60;47.50
78876;DHT22;68253;52.506;5.486;2023-09-07T14:06:19;34.60;47.50
78876;DHT22;68253;52.506;5.486;2023-09-07T14:08:48;34.50;47.50
78876;DHT22;68253;52.506;5.486;2023-09-07T14:11:14;34.50;47.40
78876;DHT22;68253;52.506;5.486;2023-09-07T14:13:40;34.40;47.30
78876;DHT22;68253;52.506;5.486;2023-09-07T14:16:06;34.40;47.70
78876;DHT22;68253;52.506;5.486;2023-09-07T14:18:33;34.30;47.60
78876;DHT22;68253;52.506;5.486;2023-09-07T14:20:59;34.20;47.60
78876;DHT22;68253;52.506;5.486;2023-09-07T14:23:26;34.20;47.40
78876;DHT22;68253;52.506;5.486;2023-09-07T14:25:54;34.20;47.70
78876;DHT22;68253;52.506;5.486;2023-09-07T14:28:20;34.10;47.20
78876;DHT22;68253;52.506;5.486;2023-09-07T14:30:47;34.00;47.60
78876;DHT22;68253;52.506;5.486;2023-09-07T14:33:14;33.90;47.50
78876;DHT22;68253;52.506;5.486;2023-09-07T14:35:40;33.90;47.80
78876;DHT22;68253;52.506;5.486;2023-09-07T14:38:06;33.80;47.60
78876;DHT22;68253;52.506;5.486;2023-09-07T14:40:32;33.80;47.60
78876;DHT22;68253;52.506;5.486;2023-09-07T14:42:58;33.80;47.60
78876;DHT22;68253;52.506;5.486;2023-09-07T14:45:25;33.80;47.50
78876;DHT22;68253;52.506;5.486;2023-09-07T14:47:51;33.80;47.90
78876;DHT22;68253;52.506;5.486;2023-09-07T14:50:18;33.80;47.80
78876;DHT22;68253;52.506;5.486;2023-09-07T14:52:44;33.80;47.60
78876;DHT22;68253;52.506;5.486;2023-09-07T14:55:13;33.70;47.90
78876;DHT22;68253;52.506;5.486;2023-09-07T14:57:43;33.60;48.00
78876;DHT22;68253;52.506;5.486;2023-09-07T15:00:09;33.60;47.70
78876;DHT22;68253;52.506;5.486;2023-09-07T15:02:37;33.50;48.30
78876;DHT22;68253;52.506;5.486;2023-09-07T15:05:03;33.50;48.40
78876;DHT22;68253;52.506;5.486;2023-09-07T15:07:29;33.50;48.90
78876;DHT22;68253;52.506;5.486;2023-09-07T15:09:56;33.50;48.20
78876;DHT22;68253;52.506;5.486;2023-09-07T15:12:22;33.40;48.50
78876;DHT22;68253;52.506;5.486;2023-09-07T15:14:48;33.40;48.40
78876;DHT22;68253;52.506;5.486;2023-09-07T15:17:15;33.30;48.30
78876;DHT22;68253;52.506;5.486;2023-09-07T15:19:42;33.30;48.30
78876;DHT22;68253;52.506;5.486;2023-09-07T15:22:08;33.30;48.90
78876;DHT22;68253;52.506;5.486;2023-09-07T15:24:34;33.20;48.40
78876;DHT22;68253;52.506;5.486;2023-09-07T15:27:10;33.10;48.50
78876;DHT22;68253;52.506;5.486;2023-09-07T15:29:38;32.90;48.50
78876;DHT22;68253;52.506;5.486;2023-09-07T15:32:04;32.80;48.50
78876;DHT22;68253;52.506;5.486;2023-09-07T15:34:32;32.60;48.20
78876;DHT22;68253;52.506;5.486;2023-09-07T15:37:08;32.50;47.60